sensor_id;sensor_type;location;lat;lon;timestamp;temperature;humidity
19610;DHT22;9952;47.122;-1.638;2023-04-25T00:04:29;9.80;99.90
19610;DHT22;9952;47.122;-1.638;2023-04-25T00:09:10;9.70;99.90
19610;DHT22;9952;47.122;-1.638;2023-04-25T00:13:51;9.60;99.90
19610;DHT22;9952;47.122;-1.638;2023-04-25T00:18:32;9.50;99.90
19610;DHT22;9952;47.122;-1.638;2023-04-25T00:23:16;9.50;99.90
19610;DHT22;9952;47.122;-1.638;2023-04-25T00:28:00;9.40;99.90
19610;DHT22;9952;47.122;-1.638;2023-04-25T00:32:41;9.30;99.90
19610;DHT22;9952;47.122;-1.638;2023-04-25T00:37:22;9.30;99.90
19610;DHT22;9952;47.122;-1.638;2023-04-25T00:42:03;9.20;99.90
19610;DHT22;9952;47.122;-1.638;2023-04-25T00:46:44;9.10;99.90
19610;DHT22;9952;47.122;-1.638;2023-04-25T00:51:25;9.00;99.90
19610;DHT22;9952;47.122;-1.638;2023-04-25T00:56:07;9.00;99.90
19610;DHT22;9952;47.122;-1.638;2023-04-25T01:00:49;8.90;99.90
19610;DHT22;9952;47.122;-1.638;2023-04-25T01:05:31;8.70;99.90
19610;DHT22;9952;47.122;-1.638;2023-04-25T01:10:12;8.60;99.90
19610;DHT22;9952;47.122;-1.638;2023-04-25T01:14:53;8.50;99.90
19610;DHT22;9952;47.122;-1.638;2023-04-25T01:19:34;8.50;99.90
19610;DHT22;9952;47.122;-1.638;2023-04-25T01:24:16;8.40;99.90
19610;DHT22;9952;47.122;-1.638;2023-04-25T01:28:57;8.30;99.90
19610;DHT22;9952;47.122;-1.638;2023-04-25T01:33:39;8.20;99.90
19610;DHT22;9952;47.122;-1.638;2023-04-25T01:38:20;8.30;99.90
19610;DHT22;9952;47.122;-1.638;2023-04-25T01:43:01;8.20;99.90
19610;DHT22;9952;47.122;-1.638;2023-04-25T01:47:42;8.10;99.90
19610;DHT22;9952;47.122;-1.638;2023-04-25T01:52:24;8.00;99.90
19610;DHT22;9952;47.122;-1.638;2023-04-25T01:57:04;7.90;99.90
19610;DHT22;9952;47.122;-1.638;2023-04-25T02:01:45;7.90;99.90
19610;DHT22;9952;47.122;-1.638;2023-04-25T02:06:26;7.80;99.90
19610;DHT22;9952;47.122;-1.638;2023-04-25T02:11:07;7.70;99.90
19610;DHT22;9952;47.122;-1.638;2023-04-25T02:15:47;7.70;99.90
19610;DHT22;9952;47.122;-1.638;2023-04-25T02:20:29;7.70;99.90
19610;DHT22;9952;47.122;-1.638;2023-04-25T02:25:11;7.50;99.90
19610;DHT22;9952;47.122;-1.638;2023-04-25T02:29:52;7.50;99.90
19610;DHT22;9952;47.122;-1.638;2023-04-25T02:34:32;7.40;99.90
19610;DHT22;9952;47.122;-1.638;2023-04-25T02:39:13;7.40;99.90
19610;DHT22;9952;47.122;-1.638;2023-04-25T02:43:54;7.30;99.90
19610;DHT22;9952;47.122;-1.638;2023-04-25T02:48:35;7.30;99.90
19610;DHT22;9952;47.122;-1.638;2023-04-25T02:53:16;7.30;99.90
19610;DHT22;9952;47.122;-1.638;2023-04-25T02:57:56;7.30;99.90
19610;DHT22;9952;47.122;-1.638;2023-04-25T03:02:37;7.30;99.90
19610;DHT22;9952;47.122;-1.638;2023-04-25T03:07:18;7.20;99.90
19610;DHT22;9952;47.122;-1.638;2023-04-25T03:11:59;7.20;99.90
19610;DHT22;9952;47.122;-1.638;2023-04-25T03:16:40;7.10;99.90
19610;DHT22;9952;47.122;-1.638;2023-04-25T03:21:21;7.10;99.90
19610;DHT22;9952;47.122;-1.638;2023-04-25T03:26:01;7.00;99.90
19610;DHT22;9952;47.122;-1.638;2023-04-25T03:30:42;7.10;99.90
19610;DHT22;9952;47.122;-1.638;2023-04-25T03:35:23;7.20;99.90
19610;DHT22;9952;47.122;-1.638;2023-04-25T03:40:04;7.10;99.90
19610;DHT22;9952;47.122;-1.638;2023-04-25T03:44:45;7.00;99.90
19610;DHT22;9952;47.122;-1.638;2023-04-25T03:49:26;6.90;99.90
19610;DHT22;9952;47.122;-1.638;2023-04-25T03:54:07;6.90;99.90
19610;DHT22;9952;47.122;-1.638;2023-04-25T03:58:48;6.80;99.90
19610;DHT22;9952;47.122;-1.638;2023-04-25T04:03:28;6.80;99.90
19610;DHT22;9952;47.122;-1.638;2023-04-25T04:08:09;6.80;99.90
19610;DHT22;9952;47.122;-1.638;2023-04-25T04:12:50;6.80;99.90
19610;DHT22;9952;47.122;-1.638;2023-04-25T04:17:31;6.70;99.90
19610;DHT22;9952;47.122;-1.638;2023-04-25T04:22:12;6.70;99.90
19610;DHT22;9952;47.122;-1.638;2023-04-25T04:26:52;6.70;99.90
19610;DHT22;9952;47.122;-1.638;2023-04-25T04:31:33;6.60;99.90
19610;DHT22;9952;47.122;-1.638;2023-04-25T04:36:14;6.60;99.90
19610;DHT22;9952;47.122;-1.638;2023-04-25T04:40:56;6.50;99.90
19610;DHT22;9952;47.122;-1.638;2023-04-25T04:45:37;6.50;99.90
19610;DHT22;9952;47.122;-1.638;2023-04-25T04:50:21;6.50;99.90
19610;DHT22;9952;47.122;-1.638;2023-04-25T04:55:03;6.50;99.90
19610;DHT22;9952;47.122;-1.638;2023-04-25T04:59:44;6.40;99.90
19610;DHT22;9952;47.122;-1.638;2023-04-25T05:04:24;6.40;99.90
19610;DHT22;9952;47.122;-1.638;2023-04-25T05:09:05;6.40;99.90
19610;DHT22;9952;47.122;-1.638;2023-04-25T05:13:46;6.40;99.90
19610;DHT22;9952;47.122;-1.638;2023-04-25T05:18:28;6.40;99.90
19610;DHT22;9952;47.122;-1.638;2023-04-25T05:23:08;6.40;99.90
19610;DHT22;9952;47.122;-1.638;2023-04-25T05:27:50;6.40;99.90
19610;DHT22;9952;47.122;-1.638;2023-04-25T05:32:32;6.40;99.90
19610;DHT22;9952;47.122;-1.638;2023-04-25T05:37:13;6.50;99.90
19610;DHT22;9952;47.122;-1.638;2023-04-25T05:41:54;6.50;99.90
19610;DHT22;9952;47.122;-1.638;2023-04-25T05:46:47;6.60;99.90
19610;DHT22;9952;47.122;-1.638;2023-04-25T05:51:28;6.80;99.90
19610;DHT22;9952;47.122;-1.638;2023-04-25T05:56:09;6.90;99.90
19610;DHT22;9952;47.122;-1.638;2023-04-25T06:00:50;7.00;99.90
19610;DHT22;9952;47.122;-1.638;2023-04-25T06:05:31;7.10;99.90
19610;DHT22;9952;47.122;-1.638;2023-04-25T06:10:11;7.20;99.90
19610;DHT22;9952;47.122;-1.638;2023-04-25T06:14:52;7.30;99.90
19610;DHT22;9952;47.122;-1.638;2023-04-25T06:19:33;7.30;99.90
19610;DHT22;9952;47.122;-1.638;2023-04-25T06:24:14;7.40;99.90
19610;DHT22;9952;47.122;-1.638;2023-04-25T06:28:55;7.50;99.90
19610;DHT22;9952;47.122;-1.638;2023-04-25T06:33:36;7.60;99.90
19610;DHT22;9952;47.122;-1.638;2023-04-25T06:38:16;7.80;99.90
19610;DHT22;9952;47.122;-1.638;2023-04-25T06:42:57;7.90;99.90
19610;DHT22;9952;47.122;-1.638;2023-04-25T06:47:39;8.00;99.90
19610;DHT22;9952;47.122;-1.638;2023-04-25T06:52:27;8.10;99.90
19610;DHT22;9952;47.122;-1.638;2023-04-25T06:57:07;8.20;99.90
19610;DHT22;9952;47.122;-1.638;2023-04-25T07:02:10;8.30;99.90
19610;DHT22;9952;47.122;-1.638;2023-04-25T07:06:51;8.50;99.90
19610;DHT22;9952;47.122;-1.638;2023-04-25T07:11:31;8.50;99.90
19610;DHT22;9952;47.122;-1.638;2023-04-25T07:16:12;8.60;99.90
19610;DHT22;9952;47.122;-1.638;2023-04-25T07:20:53;8.70;99.90
19610;DHT22;9952;47.122;-1.638;2023-04-25T07:25:34;8.90;99.90
19610;DHT22;9952;47.122;-1.638;2023-04-25T07:30:15;9.00;99.90
19610;DHT22;9952;47.122;-1.638;2023-04-25T07:34:57;9.20;99.90
19610;DHT22;9952;47.122;-1.638;2023-04-25T07:39:37;9.30;99.90
19610;DHT22;9952;47.122;-1.638;2023-04-25T07:44:18;9.40;99.90
19610;DHT22;9952;47.122;-1.638;2023-04-25T07:48:59;9.50;99.90
19610;DHT22;9952;47.122;-1.638;2023-04-25T07:53:40;9.70;99.90
19610;DHT22;9952;47.122;-1.638;2023-04-25T07:58:21;9.80;99.90
19610;DHT22;9952;47.122;-1.638;2023-04-25T08:03:02;10.00;99.90
19610;DHT22;9952;47.122;-1.638;2023-04-25T08:07:43;10.40;99.90
19610;DHT22;9952;47.122;-1.638;2023-04-25T08:12:24;11.10;99.90
19610;DHT22;9952;47.122;-1.638;2023-04-25T08:17:05;11.70;99.90
19610;DHT22;9952;47.122;-1.638;2023-04-25T08:21:46;12.10;99.90
19610;DHT22;9952;47.122;-1.638;2023-04-25T08:26:27;12.40;99.90
19610;DHT22;9952;47.122;-1.638;2023-04-25T08:31:08;12.50;99.90
19610;DHT22;9952;47.122;-1.638;2023-04-25T08:35:49;12.80;99.90
19610;DHT22;9952;47.122;-1.638;2023-04-25T08:40:32;13.20;99.90
19610;DHT22;9952;47.122;-1.638;2023-04-25T08:45:15;13.60;99.90
19610;DHT22;9952;47.122;-1.638;2023-04-25T08:49:56;13.80;99.90
19610;DHT22;9952;47.122;-1.638;2023-04-25T09:00:00;14.40;99.90
19610;DHT22;9952;47.122;-1.638;2023-04-25T09:04:43;14.50;99.90
19610;DHT22;9952;47.122;-1.638;2023-04-25T09:09:24;14.20;99.90
19610;DHT22;9952;47.122;-1.638;2023-04-25T09:14:12;13.80;99.90
19610;DHT22;9952;47.122;-1.638;2023-04-25T09:19:08;14.00;99.90
19610;DHT22;9952;47.122;-1.638;2023-04-25T09:24:01;13.90;99.90
19610;DHT22;9952;47.122;-1.638;2023-04-25T09:28:42;13.60;99.90
19610;DHT22;9952;47.122;-1.638;2023-04-25T09:34:00;13.50;99.90
19610;DHT22;9952;47.122;-1.638;2023-04-25T09:38:43;13.40;99.90
19610;DHT22;9952;47.122;-1.638;2023-04-25T09:43:25;13.50;99.90
19610;DHT22;9952;47.122;-1.638;2023-04-25T09:48:09;13.50;99.90
19610;DHT22;9952;47.122;-1.638;2023-04-25T09:53:05;13.70;99.90
19610;DHT22;9952;47.122;-1.638;2023-04-25T09:57:49;13.70;99.90
19610;DHT22;9952;47.122;-1.638;2023-04-25T10:02:33;14.10;99.90
19610;DHT22;9952;47.122;-1.638;2023-04-25T10:07:15;14.40;99.90
19610;DHT22;9952;47.122;-1.638;2023-04-25T10:11:57;14.40;99.90
19610;DHT22;9952;47.122;-1.638;2023-04-25T10:16:38;14.60;99.90
19610;DHT22;9952;47.122;-1.638;2023-04-25T10:21:21;14.50;99.90
19610;DHT22;9952;47.122;-1.638;2023-04-25T10:26:02;14.60;99.90
19610;DHT22;9952;47.122;-1.638;2023-04-25T10:31:02;14.70;99.90
19610;DHT22;9952;47.122;-1.638;2023-04-25T10:35:45;14.70;99.90
19610;DHT22;9952;47.122;-1.638;2023-04-25T10:40:26;14.80;99.90
19610;DHT22;9952;47.122;-1.638;2023-04-25T10:45:08;14.80;99.90
19610;DHT22;9952;47.122;-1.638;2023-04-25T10:49:50;14.90;99.90
19610;DHT22;9952;47.122;-1.638;2023-04-25T10:54:31;14.90;99.90
19610;DHT22;9952;47.122;-1.638;2023-04-25T10:59:14;15.10;99.90
19610;DHT22;9952;47.122;-1.638;2023-04-25T11:03:57;15.40;99.90
19610;DHT22;9952;47.122;-1.638;2023-04-25T11:08:48;15.50;99.90
19610;DHT22;9952;47.122;-1.638;2023-04-25T11:13:29;15.60;99.90
19610;DHT22;9952;47.122;-1.638;2023-04-25T11:18:16;15.50;99.90
19610;DHT22;9952;47.122;-1.638;2023-04-25T11:22:58;15.50;99.90
19610;DHT22;9952;47.122;-1.638;2023-04-25T11:27:55;15.70;99.90
19610;DHT22;9952;47.122;-1.638;2023-04-25T11:32:40;16.00;99.90
19610;DHT22;9952;47.122;-1.638;2023-04-25T11:37:21;16.10;99.90
19610;DHT22;9952;47.122;-1.638;2023-04-25T11:42:04;16.00;99.90
19610;DHT22;9952;47.122;-1.638;2023-04-25T11:46:46;15.90;99.90
19610;DHT22;9952;47.122;-1.638;2023-04-25T11:51:27;16.20;99.90
19610;DHT22;9952;47.122;-1.638;2023-04-25T11:56:11;16.50;99.90
19610;DHT22;9952;47.122;-1.638;2023-04-25T12:00:52;17.00;99.90
19610;DHT22;9952;47.122;-1.638;2023-04-25T12:05:33;16.90;99.90
19610;DHT22;9952;47.122;-1.638;2023-04-25T12:10:15;16.60;99.90
19610;DHT22;9952;47.122;-1.638;2023-04-25T12:14:57;16.30;99.90
19610;DHT22;9952;47.122;-1.638;2023-04-25T12:19:48;16.50;99.90
19610;DHT22;9952;47.122;-1.638;2023-04-25T12:24:32;16.50;99.90
19610;DHT22;9952;47.122;-1.638;2023-04-25T12:29:25;16.70;99.90
19610;DHT22;9952;47.122;-1.638;2023-04-25T12:34:06;16.80;99.90
19610;DHT22;9952;47.122;-1.638;2023-04-25T12:38:47;16.90;99.90
19610;DHT22;9952;47.122;-1.638;2023-04-25T12:43:28;16.70;99.90
19610;DHT22;9952;47.122;-1.638;2023-04-25T12:48:09;16.40;99.90
19610;DHT22;9952;47.122;-1.638;2023-04-25T12:52:50;16.10;99.90
19610;DHT22;9952;47.122;-1.638;2023-04-25T12:57:32;15.80;99.90
19610;DHT22;9952;47.122;-1.638;2023-04-25T13:02:13;15.70;99.90
19610;DHT22;9952;47.122;-1.638;2023-04-25T13:06:54;15.70;99.90
19610;DHT22;9952;47.122;-1.638;2023-04-25T13:11:35;15.80;99.90
19610;DHT22;9952;47.122;-1.638;2023-04-25T13:16:16;15.90;99.90
19610;DHT22;9952;47.122;-1.638;2023-04-25T13:20:58;15.80;99.90
19610;DHT22;9952;47.122;-1.638;2023-04-25T13:25:40;15.80;99.90
19610;DHT22;9952;47.122;-1.638;2023-04-25T13:30:21;15.90;99.90
19610;DHT22;9952;47.122;-1.638;2023-04-25T13:35:08;15.60;99.90
